Time;durP1;ratioP1;P1;durP2;ratioP2;P2;SDS_P1;SDS_P2;PMS_P1;PMS_P2;Temp;Humidity;BMP_temperature;BMP_pressure;BME280_temperature;BME280_humidity;BME280_pressure;Samples;Min_cycle;Max_cycle;Signal;HPM_P1;HPM_P2
2022/05/06 00:01:51;;;;;;;29.13;18.40;;;10.10;99.90;;;;;;5054111;28;20885;-47
2022/05/06 00:04:17;;;;;;;28.38;18.05;;;10.10;99.90;;;;;;5051360;28;20389;-48
2022/05/06 00:06:42;;;;;;;27.75;17.38;;;10.20;99.90;;;;;;5052261;28;20470;-46
2022/05/06 00:09:08;;;;;;;28.25;16.75;;;10.20;99.90;;;;;;5052580;28;20041;-48
2022/05/06 00:11:34;;;;;;;29.25;17.45;;;10.20;99.90;;;;;;5052435;28;20041;-45
2022/05/06 00:14:00;;;;;;;25.30;16.40;;;10.10;99.90;;;;;;5052232;28;20481;-46
2022/05/06 00:16:27;;;;;;;23.35;14.40;;;10.00;99.90;;;;;;5070776;28;20040;-47
2022/05/06 00:18:54;;;;;;;23.75;15.27;;;10.00;99.90;;;;;;5071067;28;20044;-49
2022/05/06 00:21:20;;;;;;;25.40;15.32;;;10.00;99.90;;;;;;5072046;28;20131;-46
2022/05/06 00:23:46;;;;;;;24.42;14.98;;;9.80;99.90;;;;;;5072090;28;20104;-48
2022/05/06 00:26:12;;;;;;;24.80;15.25;;;9.90;99.90;;;;;;5072109;28;20123;-46
2022/05/06 00:28:39;;;;;;;22.67;14.30;;;9.80;99.90;;;;;;5072018;28;20113;-46
2022/05/06 00:31:06;;;;;;;22.95;14.23;;;9.80;99.90;;;;;;5072169;28;20429;-46
2022/05/06 00:33:33;;;;;;;22.38;14.50;;;9.90;99.90;;;;;;5072007;28;20083;-47
2022/05/06 00:36:00;;;;;;;26.48;14.85;;;9.80;99.90;;;;;;5071907;28;20091;-48
2022/05/06 00:38:27;;;;;;;22.30;13.68;;;9.80;99.90;;;;;;5073745;28;20496;-47
2022/05/06 00:40:53;;;;;;;20.20;13.02;;;9.70;99.90;;;;;;5076200;28;20040;-61
2022/05/06 00:43:20;;;;;;;18.58;12.20;;;9.70;99.90;;;;;;5076063;28;20120;-61
2022/05/06 00:45:52;;;;;;;19.33;11.90;;;9.60;99.90;;;;;;5076139;28;20457;-61
2022/05/06 00:48:23;;;;;;;18.67;11.50;;;9.50;99.90;;;;;;5074726;28;20116;-61
2022/05/06 00:50:50;;;;;;;18.50;10.57;;;9.50;99.90;;;;;;5076133;28;20063;-61
2022/05/06 00:53:17;;;;;;;18.02;11.27;;;9.40;99.90;;;;;;5075980;28;20076;-61
2022/05/06 00:55:43;;;;;;;21.00;12.23;;;9.50;99.90;;;;;;5075963;28;20113;-61
2022/05/06 00:58:09;;;;;;;19.50;12.85;;;9.40;99.90;;;;;;5075898;28;20091;-61
2022/05/06 01:00:35;;;;;;;21.10;13.88;;;9.40;99.90;;;;;;5069003;28;20065;-61
2022/05/06 01:03:02;;;;;;;22.90;14.27;;;9.50;99.90;;;;;;5055559;28;20052;-61
2022/05/06 01:05:29;;;;;;;22.55;14.35;;;9.50;99.90;;;;;;5055876;28;20037;-61
2022/05/06 01:07:55;;;;;;;22.48;14.30;;;9.50;99.90;;;;;;5055622;28;20495;-46
2022/05/06 01:10:22;;;;;;;21.52;14.00;;;9.40;99.90;;;;;;5055691;28;20396;-47
2022/05/06 01:12:48;;;;;;;23.23;14.07;;;9.40;99.90;;;;;;5055502;28;20482;-47
2022/05/06 01:15:27;;;;;;;24.52;15.48;;;9.40;99.90;;;;;;5064045;28;20198;-48
2022/05/06 01:17:55;;;;;;;24.35;14.98;;;9.30;99.90;;;;;;5075583;28;20040;-48
2022/05/06 01:20:22;;;;;;;22.77;14.27;;;9.40;99.90;;;;;;5075449;28;20044;-52
2022/05/06 01:22:50;;;;;;;23.25;13.68;;;9.30;99.90;;;;;;5075034;28;20511;-52
2022/05/06 01:25:17;;;;;;;21.48;13.95;;;9.20;99.90;;;;;;5075372;28;20044;-49
2022/05/06 01:28:03;;;;;;;20.95;12.52;;;9.20;99.90;;;;;;5075188;28;20111;-47
2022/05/06 01:30:37;;;;;;;20.98;12.32;;;9.20;99.90;;;;;;5075355;28;20044;-46
2022/05/06 01:33:05;;;;;;;17.70;11.73;;;9.20;99.90;;;;;;5075239;28;20068;-46
2022/05/06 01:35:35;;;;;;;21.77;12.60;;;9.20;99.90;;;;;;5075171;28;20041;-46
2022/05/06 01:38:03;;;;;;;17.80;11.52;;;9.10;99.90;;;;;;5075131;28;20040;-46
2022/05/06 01:40:35;;;;;;;18.55;10.68;;;9.10;99.90;;;;;;5074915;28;20080;-47
2022/05/06 01:43:02;;;;;;;20.40;11.88;;;9.20;99.90;;;;;;5074800;28;20041;-47
2022/05/06 01:45:32;;;;;;;19.67;11.73;;;9.20;99.90;;;;;;5075026;28;20047;-47
2022/05/06 01:48:00;;;;;;;19.70;12.98;;;9.20;99.90;;;;;;5074878;28;20044;-46
2022/05/06 01:50:27;;;;;;;19.55;12.57;;;9.20;99.90;;;;;;5073959;28;20112;-46
2022/05/06 01:52:55;;;;;;;20.73;13.15;;;9.10;99.90;;;;;;5074573;28;20048;-54
2022/05/06 01:55:22;;;;;;;22.33;14.27;;;9.20;99.90;;;;;;5074590;28;20062;-51
2022/05/06 01:57:47;;;;;;;22.35;13.10;;;9.20;99.90;;;;;;5074871;28;20041;-52
2022/05/06 02:00:13;;;;;;;22.88;14.73;;;9.20;99.90;;;;;;5070983;28;20447;-47
2022/05/06 02:02:39;;;;;;;21.35;14.02;;;9.10;99.90;;;;;;5054717;28;20141;-49
2022/05/06 02:05:18;;;;;;;22.92;14.48;;;9.20;99.90;;;;;;5054552;28;20064;-49
2022/05/06 02:07:50;;;;;;;23.77;13.43;;;9.10;99.90;;;;;;5054441;28;20190;-49
2022/05/06 02:10:17;;;;;;;20.58;13.10;;;9.10;99.90;;;;;;5054719;28;20044;-61
2022/05/06 02:12:45;;;;;;;21.77;14.20;;;9.10;99.90;;;;;;5054437;28;20048;-61
2022/05/06 02:15:11;;;;;;;27.85;15.68;;;9.10;99.90;;;;;;5062568;28;20036;-62
2022/05/06 02:17:40;;;;;;;25.17;15.60;;;9.10;99.90;;;;;;5074452;28;20393;-62
2022/05/06 02:20:08;;;;;;;38.08;20.92;;;9.00;99.90;;;;;;5074376;28;20048;-61
2022/05/06 02:22:35;;;;;;;81.63;29.45;;;9.10;99.90;;;;;;5074113;28;20443;-61
2022/05/06 02:25:00;;;;;;;74.45;29.95;;;9.30;99.90;;;;;;5074283;28;20044;-61
2022/05/06 02:27:26;;;;;;;127.57;35.90;;;9.20;99.90;;;;;;5074157;28;20051;-61
2022/05/06 02:35:21;;;;;;;148.52;35.63;;;9.20;99.90;;;;;;5072769;28;20055;-62
2022/05/06 02:37:47;;;;;;;164.20;36.10;;;9.20;99.90;;;;;;5073942;28;20123;-49
2022/05/06 02:40:13;;;;;;;224.55;35.95;;;9.10;99.90;;;;;;5073840;28;20167;-47
2022/05/06 02:42:39;;;;;;;124.85;34.03;;;9.00;99.90;;;;;;5073790;28;20033;-46
2022/05/06 02:45:05;;;;;;;154.85;36.15;;;9.20;99.90;;;;;;5074031;28;20039;-62
2022/05/06 02:47:31;;;;;;;155.63;35.67;;;9.20;99.90;;;;;;5073886;28;20051;-47
2022/05/06 02:49:56;;;;;;;141.32;34.58;;;9.20;99.90;;;;;;5073927;28;20469;-61
2022/05/06 02:52:23;;;;;;;126.00;34.22;;;9.20;99.90;;;;;;5073768;28;20055;-47
2022/05/06 02:54:49;;;;;;;115.70;34.65;;;9.30;99.90;;;;;;5073617;28;20032;-46
2022/05/06 02:57:14;;;;;;;154.15;35.72;;;9.20;99.90;;;;;;5073546;28;20526;-46
2022/05/06 02:59:40;;;;;;;115.22;34.42;;;9.20;99.90;;;;;;5073768;28;20469;-46
2022/05/06 03:02:06;;;;;;;218.85;38.15;;;9.20;99.90;;;;;;5053183;28;20079;-48
2022/05/06 03:04:33;;;;;;;112.35;32.83;;;9.20;99.90;;;;;;5053369;28;20527;-50
2022/05/06 03:06:59;;;;;;;100.65;31.08;;;9.20;99.90;;;;;;5053429;28;20037;-46
2022/05/06 03:09:25;;;;;;;70.82;29.80;;;9.20;99.90;;;;;;5053286;28;20064;-46
2022/05/06 03:11:52;;;;;;;116.65;29.33;;;9.20;99.90;;;;;;5052162;28;20397;-49
2022/05/06 03:14:17;;;;;;;147.80;31.20;;;9.10;99.90;;;;;;5054252;28;20115;-47
2022/05/06 03:16:43;;;;;;;94.57;29.60;;;8.80;99.90;;;;;;5073426;28;20460;-47
2022/05/06 03:19:09;;;;;;;72.75;29.40;;;9.00;99.90;;;;;;5073287;28;20480;-46
2022/05/06 03:21:35;;;;;;;124.22;30.60;;;9.00;99.90;;;;;;5072715;28;20113;-46
2022/05/06 03:24:00;;;;;;;147.70;33.63;;;9.00;99.90;;;;;;5072984;28;20053;-46
2022/05/06 03:26:26;;;;;;;152.45;33.25;;;9.10;99.90;;;;;;5073005;28;20451;-46
2022/05/06 03:28:57;;;;;;;78.43;29.65;;;9.10;99.90;;;;;;5071709;28;20515;-45
2022/05/06 03:31:25;;;;;;;111.80;32.28;;;9.10;99.90;;;;;;5073062;28;20036;-49
2022/05/06 03:33:52;;;;;;;191.40;33.45;;;9.00;99.90;;;;;;5072990;28;20103;-47
2022/05/06 03:36:18;;;;;;;148.98;30.90;;;9.00;99.90;;;;;;5072747;28;20071;-46
2022/05/06 03:38:44;;;;;;;152.05;30.33;;;9.20;99.90;;;;;;5072654;28;20472;-46
2022/05/06 03:41:09;;;;;;;112.25;30.23;;;9.20;99.90;;;;;;5072559;28;20036;-61
2022/05/06 03:43:35;;;;;;;207.13;36.67;;;9.00;99.90;;;;;;5072708;28;20079;-61
2022/05/06 03:46:01;;;;;;;166.35;32.55;;;9.10;99.90;;;;;;5072750;28;20072;-61
2022/05/06 03:48:26;;;;;;;100.68;29.10;;;9.10;99.90;;;;;;5072728;28;20039;-61
2022/05/06 03:53:37;;;;;;;118.70;31.48;;;9.10;99.90;;;;;;5072424;28;20090;-62
2022/05/06 03:56:06;;;;;;;242.55;36.28;;;9.20;99.90;;;;;;5072500;28;20119;-61
2022/05/06 03:58:32;;;;;;;109.25;30.60;;;9.20;99.90;;;;;;5072569;28;20036;-62
2022/05/06 04:00:58;;;;;;;161.25;31.77;;;9.30;99.90;;;;;;5061538;28;20473;-61
2022/05/06 04:03:24;;;;;;;219.25;33.58;;;9.30;99.90;;;;;;5052400;28;20076;-62
2022/05/06 04:05:50;;;;;;;169.52;31.60;;;9.30;99.90;;;;;;5052220;28;20084;-62
2022/05/06 04:08:16;;;;;;;132.73;32.05;;;9.40;99.90;;;;;;5052251;28;20033;-62
2022/05/06 04:10:42;;;;;;;137.73;31.08;;;9.30;99.90;;;;;;5052366;28;20533;-61
2022/05/06 04:13:08;;;;;;;146.82;31.63;;;9.40;99.90;;;;;;5051906;28;20053;-61
2022/05/06 04:15:33;;;;;;;185.00;31.52;;;9.40;99.90;;;;;;5062342;28;20075;-61
2022/05/06 04:18:02;;;;;;;149.98;31.45;;;9.30;99.90;;;;;;5072233;28;20113;-61
2022/05/06 04:23:31;;;;;;;160.45;32.50;;;9.30;99.90;;;;;;5072057;28;20091;-61
2022/05/06 04:26:06;;;;;;;101.40;30.15;;;9.30;99.90;;;;;;5072194;28;20135;-61
2022/05/06 04:28:32;;;;;;;147.20;31.80;;;9.30;99.90;;;;;;5070953;28;20049;-61
2022/05/06 04:30:59;;;;;;;116.82;29.45;;;9.30;99.90;;;;;;5072199;28;20106;-61
2022/05/06 04:33:26;;;;;;;124.43;31.13;;;9.20;99.90;;;;;;5072117;28;20472;-61
2022/05/06 04:35:53;;;;;;;131.52;31.98;;;9.40;99.90;;;;;;5072238;28;20047;-61
2022/05/06 04:38:19;;;;;;;107.25;31.00;;;9.40;99.90;;;;;;5071035;28;20442;-46
2022/05/06 04:40:45;;;;;;;107.85;29.73;;;9.30;99.90;;;;;;5072150;28;20234;-46
2022/05/06 04:43:11;;;;;;;98.80;29.88;;;9.30;99.90;;;;;;5071923;28;20141;-47
2022/05/06 04:45:41;;;;;;;174.90;32.67;;;9.30;99.90;;;;;;5071959;28;20056;-46
2022/05/06 04:48:10;;;;;;;131.55;31.10;;;9.30;99.90;;;;;;5072012;28;20041;-48
2022/05/06 04:50:37;;;;;;;136.75;32.28;;;9.40;99.90;;;;;;5072018;28;20450;-48
2022/05/06 04:53:05;;;;;;;102.55;29.63;;;9.30;99.90;;;;;;5071900;28;20051;-49
2022/05/06 04:55:30;;;;;;;106.95;29.63;;;9.40;99.90;;;;;;5071961;28;20040;-61
2022/05/06 04:57:56;;;;;;;136.02;30.33;;;9.40;99.90;;;;;;5071945;28;20623;-62
2022/05/06 05:00:22;;;;;;;106.57;30.70;;;9.30;99.90;;;;;;5066747;28;20037;-61
2022/05/06 05:02:48;;;;;;;129.07;33.08;;;9.40;99.90;;;;;;5051708;28;20049;-50
2022/05/06 05:05:15;;;;;;;142.77;32.38;;;9.30;99.90;;;;;;5051983;28;20423;-61
2022/05/06 05:07:41;;;;;;;158.77;33.83;;;9.40;99.90;;;;;;5051887;28;20037;-61
2022/05/06 05:10:08;;;;;;;111.82;34.47;;;9.40;99.90;;;;;;5051813;28;20120;-47
2022/05/06 05:12:35;;;;;;;101.72;32.67;;;9.50;99.90;;;;;;5051742;28;20053;-47
2022/05/06 05:15:02;;;;;;;115.97;34.25;;;9.60;99.90;;;;;;5058343;28;20040;-61
2022/05/06 05:17:27;;;;;;;90.63;34.15;;;9.60;99.90;;;;;;5071795;28;20048;-52
2022/05/06 05:19:53;;;;;;;99.00;33.65;;;9.70;99.90;;;;;;5071640;28;20048;-47
2022/05/06 05:22:19;;;;;;;78.53;31.70;;;9.70;99.90;;;;;;5071447;28;20057;-61
2022/05/06 05:24:45;;;;;;;102.60;33.75;;;9.70;99.90;;;;;;5072182;28;20037;-62
2022/05/06 05:27:13;;;;;;;76.28;32.17;;;9.80;99.90;;;;;;5075197;28;20040;-47
2022/05/06 05:29:39;;;;;;;115.43;33.88;;;9.80;99.90;;;;;;5075178;28;20488;-47
2022/05/06 05:32:06;;;;;;;86.85;31.52;;;9.80;99.90;;;;;;5075326;28;20094;-46
2022/05/06 05:34:32;;;;;;;102.18;35.30;;;9.80;99.90;;;;;;5075215;28;20040;-47
2022/05/06 05:36:57;;;;;;;95.00;30.83;;;9.80;99.90;;;;;;5075083;28;20098;-61
2022/05/06 05:39:23;;;;;;;112.95;32.22;;;9.80;99.90;;;;;;5074978;28;20044;-61
2022/05/06 05:41:49;;;;;;;71.80;29.38;;;9.70;99.90;;;;;;5074956;28;20045;-61
2022/05/06 05:49:44;;;;;;;92.90;29.65;;;9.90;99.90;;;;;;5074841;28;20128;-62
2022/05/06 05:52:10;;;;;;;85.53;30.13;;;9.90;99.90;;;;;;5075079;28;20075;-47
2022/05/06 05:54:37;;;;;;;150.57;34.97;;;9.90;99.90;;;;;;5074556;28;20531;-48
2022/05/06 05:57:04;;;;;;;98.35;31.23;;;9.90;99.90;;;;;;5074760;28;20037;-46
2022/05/06 05:59:29;;;;;;;74.65;30.38;;;10.00;99.90;;;;;;5074669;28;20039;-51
2022/05/06 06:01:55;;;;;;;85.45;31.35;;;10.00;99.90;;;;;;5056576;28;20247;-61
2022/05/06 06:04:21;;;;;;;80.30;30.80;;;10.10;99.90;;;;;;5053338;28;20041;-61
2022/05/06 06:06:47;;;;;;;77.72;29.52;;;10.10;99.90;;;;;;5053257;28;20037;-61
2022/05/06 06:09:13;;;;;;;85.57;30.67;;;10.10;99.90;;;;;;5054511;28;20041;-62
2022/05/06 06:11:38;;;;;;;116.13;32.95;;;10.20;99.90;;;;;;5054642;28;20706;-61
2022/05/06 06:14:05;;;;;;;94.03;32.22;;;10.30;99.90;;;;;;5054601;28;20393;-62
2022/05/06 06:16:31;;;;;;;64.40;27.27;;;10.40;99.90;;;;;;5073560;28;20116;-62
2022/05/06 06:18:58;;;;;;;53.80;25.10;;;10.40;99.90;;;;;;5074476;28;20040;-62
2022/05/06 06:21:27;;;;;;;75.35;27.65;;;10.20;99.90;;;;;;5073965;28;20122;-62
2022/05/06 06:23:53;;;;;;;75.25;26.40;;;10.30;99.90;;;;;;5073539;28;20106;-61
2022/05/06 06:26:19;;;;;;;120.05;30.30;;;10.30;99.90;;;;;;5073546;28;20048;-62
2022/05/06 06:28:45;;;;;;;80.78;28.05;;;10.40;99.90;;;;;;5073483;28;20036;-62
2022/05/06 06:31:10;;;;;;;73.18;27.38;;;10.40;99.90;;;;;;5072002;28;20040;-46
2022/05/06 06:33:39;;;;;;;67.53;25.63;;;10.60;99.90;;;;;;5071949;28;20074;-48
2022/05/06 06:36:05;;;;;;;90.88;29.05;;;10.50;99.90;;;;;;5072553;28;20051;-48
2022/05/06 06:38:31;;;;;;;56.10;25.92;;;10.50;99.90;;;;;;5072675;28;20542;-61
2022/05/06 06:40:57;;;;;;;54.78;23.70;;;10.60;99.90;;;;;;5072994;28;20396;-61
2022/05/06 06:43:22;;;;;;;44.42;22.77;;;10.70;99.90;;;;;;5073012;28;20048;-61
2022/05/06 06:45:48;;;;;;;46.08;21.73;;;10.60;99.90;;;;;;5072932;28;20472;-61
2022/05/06 06:48:14;;;;;;;45.58;20.45;;;10.60;99.90;;;;;;5072934;28;20136;-62
2022/05/06 06:50:40;;;;;;;36.75;19.88;;;10.50;99.90;;;;;;5072482;28;20041;-61
2022/05/06 06:53:06;;;;;;;32.15;18.33;;;10.60;99.90;;;;;;5071672;28;20136;-62
2022/05/06 06:55:32;;;;;;;40.10;19.85;;;10.80;99.90;;;;;;5072861;28;20043;-50
2022/05/06 06:57:58;;;;;;;37.35;18.55;;;10.70;99.90;;;;;;5072600;28;20598;-47
2022/05/06 07:00:23;;;;;;;36.25;19.15;;;10.80;99.90;;;;;;5066183;28;20044;-61
2022/05/06 07:02:49;;;;;;;35.35;17.35;;;10.60;99.90;;;;;;5052266;28;20045;-48
2022/05/06 07:05:15;;;;;;;31.27;16.80;;;10.70;99.90;;;;;;5051205;28;20045;-47
2022/05/06 07:13:11;;;;;;;28.45;15.88;;;10.90;99.90;;;;;;5052007;28;20056;-48
2022/05/06 07:15:36;;;;;;;27.80;14.77;;;10.80;99.90;;;;;;5063230;28;20507;-45
2022/05/06 07:18:02;;;;;;;29.65;14.15;;;10.90;99.90;;;;;;5061079;28;20102;-45
2022/05/06 07:20:28;;;;;;;25.73;14.05;;;10.70;99.90;;;;;;5057244;28;20040;-47
2022/05/06 07:22:53;;;;;;;24.52;13.38;;;10.70;99.90;;;;;;5061855;28;20061;-46
2022/05/06 07:25:19;;;;;;;23.13;13.32;;;10.80;99.90;;;;;;5062961;28;20044;-46
2022/05/06 07:27:45;;;;;;;18.33;11.05;;;10.90;99.90;;;;;;5052169;28;20473;-47
2022/05/06 07:30:11;;;;;;;17.25;11.10;;;10.90;99.90;;;;;;5051956;28;20381;-46
2022/05/06 07:32:39;;;;;;;17.60;10.43;;;11.00;99.90;;;;;;5051477;28;20041;-46
2022/05/06 07:35:05;;;;;;;14.30;9.27;;;11.00;99.90;;;;;;5052001;28;20041;-46
2022/05/06 07:37:33;;;;;;;14.82;9.18;;;11.00;99.90;;;;;;5051962;28;20433;-50
2022/05/06 07:40:04;;;;;;;15.30;9.68;;;11.00;99.90;;;;;;5052090;28;20115;-46
2022/05/06 07:42:30;;;;;;;15.40;9.55;;;11.20;99.90;;;;;;5051681;28;20094;-47
2022/05/06 07:45:00;;;;;;;15.43;9.70;;;11.10;99.90;;;;;;5051754;28;20029;-46
2022/05/06 07:47:26;;;;;;;14.93;9.82;;;11.00;99.90;;;;;;5051036;28;20052;-47
2022/05/06 07:49:52;;;;;;;14.75;10.27;;;11.20;99.90;;;;;;5051714;28;20052;-49
2022/05/06 07:52:18;;;;;;;15.05;9.77;;;11.60;99.90;;;;;;5050476;28;20512;-61
2022/05/06 07:54:44;;;;;;;14.23;9.55;;;11.70;99.90;;;;;;5051528;28;20076;-61
2022/05/06 07:57:10;;;;;;;14.20;9.32;;;11.60;99.90;;;;;;5050379;28;20045;-61
2022/05/06 07:59:36;;;;;;;13.82;9.55;;;11.90;99.90;;;;;;5051386;28;20045;-61
2022/05/06 08:04:48;;;;;;;14.10;9.00;;;12.00;99.90;;;;;;5071592;28;20047;-61
2022/05/06 08:07:15;;;;;;;12.98;8.88;;;12.10;99.90;;;;;;5071520;28;20079;-61
2022/05/06 08:09:42;;;;;;;13.40;8.85;;;12.20;99.90;;;;;;5071626;28;20060;-60
2022/05/06 08:12:08;;;;;;;14.07;8.85;;;12.30;99.90;;;;;;5071384;28;20102;-61
2022/05/06 08:14:34;;;;;;;12.57;8.70;;;12.20;99.90;;;;;;5071474;28;20068;-61
2022/05/06 08:17:00;;;;;;;12.20;8.20;;;12.40;99.90;;;;;;5071358;28;20040;-46
2022/05/06 08:19:26;;;;;;;12.40;8.43;;;12.70;99.90;;;;;;5071170;28;20039;-47
2022/05/06 08:21:52;;;;;;;13.93;8.18;;;12.50;99.90;;;;;;5070524;28;20380;-52
2022/05/06 08:24:19;;;;;;;12.50;8.43;;;12.70;99.90;;;;;;5071039;28;20533;-50
2022/05/06 08:26:46;;;;;;;12.10;7.72;;;12.60;99.90;;;;;;5070932;28;20047;-61
2022/05/06 08:29:12;;;;;;;11.48;8.02;;;12.60;99.90;;;;;;5071154;28;20033;-61
2022/05/06 08:31:38;;;;;;;11.43;8.38;;;12.60;99.90;;;;;;5071151;28;20029;-61
2022/05/06 08:34:08;;;;;;;11.95;7.50;;;12.80;99.90;;;;;;5068093;28;20361;-61
2022/05/06 08:36:40;;;;;;;12.93;8.70;;;13.10;99.90;;;;;;5070208;28;20500;-61
2022/05/06 08:39:07;;;;;;;10.98;7.72;;;13.20;99.90;;;;;;5070196;28;20037;-61
2022/05/06 08:41:35;;;;;;;12.10;8.05;;;13.30;99.90;;;;;;5070124;28;20044;-61
2022/05/06 08:52:24;;;;;;;11.98;8.35;;;14.00;99.90;;;;;;5048496;28;20117;-47
2022/05/06 08:54:51;;;;;;;10.82;7.63;;;14.00;99.90;;;;;;5046069;28;20694;-47
2022/05/06 08:57:17;;;;;;;10.90;7.25;;;14.00;99.90;;;;;;5050606;28;20171;-50
2022/05/06 08:59:42;;;;;;;12.10;7.78;;;13.90;99.90;;;;;;5052771;28;20135;-48
2022/05/06 09:02:10;;;;;;;12.13;7.22;;;14.00;99.90;;;;;;5054640;28;20040;-61
2022/05/06 09:04:39;;;;;;;11.88;6.95;;;14.00;99.90;;;;;;5054675;28;20048;-60
2022/05/06 09:07:20;;;;;;;11.32;7.53;;;14.00;99.90;;;;;;5054927;28;20032;-60
2022/05/06 09:10:14;;;;;;;12.73;8.30;;;14.30;99.90;;;;;;5053184;28;20523;-48
2022/05/06 09:12:41;;;;;;;11.93;7.60;;;14.50;99.90;;;;;;5052801;28;20483;-46
2022/05/06 09:17:59;;;;;;;10.88;7.75;;;14.80;99.90;;;;;;5051978;28;20052;-47
2022/05/06 09:20:26;;;;;;;11.15;7.40;;;14.90;99.90;;;;;;5052366;28;20074;-49
2022/05/06 09:22:53;;;;;;;10.70;7.60;;;15.20;99.90;;;;;;5052332;28;20052;-47
2022/05/06 09:25:42;;;;;;;10.27;6.55;;;15.20;99.90;;;;;;5054408;28;20094;-49
2022/05/06 09:28:32;;;;;;;11.82;7.50;;;15.30;99.90;;;;;;5053426;28;20047;-48
2022/05/06 09:31:04;;;;;;;9.48;6.78;;;15.60;99.90;;;;;;5050319;28;20045;-49
2022/05/06 09:33:32;;;;;;;10.27;7.15;;;15.90;99.90;;;;;;5052824;28;20045;-46
2022/05/06 09:35:58;;;;;;;10.63;6.63;;;15.80;99.90;;;;;;5054231;28;20041;-53
2022/05/06 09:38:29;;;;;;;10.68;7.13;;;15.80;99.90;;;;;;5050659;28;20095;-55
2022/05/06 09:40:55;;;;;;;10.60;7.35;;;15.90;99.90;;;;;;5053370;28;20098;-56
2022/05/06 09:43:21;;;;;;;11.10;7.03;;;15.70;99.90;;;;;;5052206;28;20056;-61
2022/05/06 09:45:47;;;;;;;9.30;6.22;;;15.70;99.90;;;;;;5054106;28;20037;-61
2022/05/06 09:48:14;;;;;;;10.65;7.03;;;15.80;99.90;;;;;;5053922;28;20550;-61
2022/05/06 09:50:47;;;;;;;9.90;6.68;;;16.10;99.90;;;;;;5054507;28;20098;-60
2022/05/06 09:53:17;;;;;;;8.70;6.10;;;16.30;99.90;;;;;;5053449;28;20106;-60
2022/05/06 09:55:45;;;;;;;8.05;5.47;;;16.60;99.90;;;;;;5052017;28;20037;-60
2022/05/06 09:58:12;;;;;;;9.05;5.80;;;16.40;99.90;;;;;;5052277;28;20049;-61
2022/05/06 10:00:38;;;;;;;9.40;5.63;;;16.40;99.90;;;;;;5051110;28;20065;-62
2022/05/06 10:03:05;;;;;;;9.07;6.13;;;16.70;99.90;;;;;;5049831;28;20519;-60
2022/05/06 10:05:34;;;;;;;9.55;6.50;;;16.80;99.90;;;;;;5050451;28;20500;-60
2022/05/06 10:08:33;;;;;;;9.75;6.97;;;16.80;99.90;;;;;;5051140;28;20115;-61
2022/05/06 10:11:01;;;;;;;8.63;5.45;;;16.80;99.90;;;;;;5040008;28;20052;-62
2022/05/06 10:13:29;;;;;;;7.35;4.60;;;16.70;99.90;;;;;;5051979;28;20055;-63
2022/05/06 10:15:55;;;;;;;7.18;4.47;;;16.70;99.90;;;;;;5052989;28;20044;-62
2022/05/06 10:18:38;;;;;;;10.18;5.70;;;16.80;99.90;;;;;;5054004;28;20115;-61
2022/05/06 10:21:05;;;;;;;9.45;5.28;;;17.00;99.90;;;;;;5052618;28;20048;-63
2022/05/06 10:23:55;;;;;;;10.15;6.13;;;16.90;99.90;;;;;;5053667;28;20053;-48
2022/05/06 10:26:39;;;;;;;8.15;5.07;;;16.80;99.90;;;;;;5052484;28;20079;-47
2022/05/06 10:34:57;;;;;;;10.85;5.70;;;17.10;99.90;;;;;;5052513;28;20060;-60
2022/05/06 10:37:28;;;;;;;6.50;4.20;;;17.20;99.90;;;;;;5052363;28;20040;-61
2022/05/06 10:39:54;;;;;;;7.22;4.15;;;17.40;99.90;;;;;;5051460;28;20048;-62
2022/05/06 10:42:31;;;;;;;8.40;5.22;;;17.30;99.90;;;;;;5052637;28;20044;-61
2022/05/06 10:44:57;;;;;;;6.65;4.13;;;17.40;99.90;;;;;;5051187;28;20040;-61
2022/05/06 10:47:41;;;;;;;6.20;3.17;;;17.40;99.90;;;;;;5050565;28;20047;-61
2022/05/06 10:50:13;;;;;;;7.68;3.75;;;17.40;99.90;;;;;;5051861;28;20495;-61
2022/05/06 10:52:40;;;;;;;7.03;4.50;;;17.40;99.90;;;;;;5051873;28;20119;-61
2022/05/06 10:55:07;;;;;;;6.00;3.30;;;17.70;99.90;;;;;;5048563;28;20113;-62
2022/05/06 10:57:48;;;;;;;6.90;4.03;;;17.50;99.90;;;;;;5050806;28;20045;-61
2022/05/06 11:00:14;;;;;;;6.95;4.18;;;17.50;99.90;;;;;;5051790;28;20048;-60
2022/05/06 11:02:40;;;;;;;7.03;4.05;;;17.60;99.90;;;;;;5053578;28;20052;-61
2022/05/06 11:05:10;;;;;;;8.43;4.70;;;17.60;99.90;;;;;;5050350;28;21696;-61
2022/05/06 11:07:38;;;;;;;7.18;4.43;;;17.80;99.90;;;;;;5051102;28;20048;-61
2022/05/06 11:10:11;;;;;;;6.63;3.40;;;17.90;99.90;;;;;;5051715;28;20041;-61
2022/05/06 11:12:45;;;;;;;6.85;3.88;;;18.00;99.90;;;;;;5050810;28;20139;-60
2022/05/06 11:15:14;;;;;;;7.32;3.85;;;18.10;99.90;;;;;;5049365;28;20049;-61
2022/05/06 11:17:44;;;;;;;7.40;3.90;;;18.00;99.90;;;;;;5049772;28;20127;-61
2022/05/06 11:20:31;;;;;;;8.18;4.28;;;18.10;99.90;;;;;;5051895;28;20072;-61
2022/05/06 11:23:14;;;;;;;8.50;5.15;;;18.20;99.90;;;;;;5050586;28;20056;-49
2022/05/06 11:25:44;;;;;;;6.70;3.90;;;18.20;99.90;;;;;;5052452;28;20138;-49
2022/05/06 11:28:20;;;;;;;6.28;3.50;;;18.20;99.90;;;;;;5064986;28;20044;-61
2022/05/06 11:30:50;;;;;;;6.53;3.33;;;18.20;99.90;;;;;;5071731;28;20041;-61
2022/05/06 11:33:25;;;;;;;6.00;3.17;;;18.10;99.90;;;;;;5072854;28;20052;-48
2022/05/06 11:36:01;;;;;;;6.45;2.97;;;18.20;99.90;;;;;;5072717;28;20558;-61
2022/05/06 11:38:38;;;;;;;5.53;3.17;;;18.30;99.90;;;;;;5072646;28;20078;-60
2022/05/06 11:41:15;;;;;;;8.73;3.90;;;18.50;99.90;;;;;;5072819;28;20110;-50
2022/05/06 11:43:43;;;;;;;7.55;3.88;;;18.50;99.90;;;;;;5072441;28;20510;-47
2022/05/06 11:49:00;;;;;;;7.35;3.97;;;18.80;99.90;;;;;;5072609;28;20040;-60
2022/05/06 11:51:34;;;;;;;7.88;4.35;;;18.90;99.90;;;;;;5072442;28;20475;-48
2022/05/06 11:54:01;;;;;;;7.25;3.63;;;19.20;99.90;;;;;;5072485;28;20036;-61
2022/05/06 11:56:28;;;;;;;8.63;4.68;;;19.30;99.90;;;;;;5072382;28;20040;-61
2022/05/06 11:58:56;;;;;;;8.57;4.63;;;19.10;99.90;;;;;;5072304;28;20055;-61
2022/05/06 12:01:30;;;;;;;7.18;4.57;;;18.80;99.90;;;;;;5070913;28;20074;-61
2022/05/06 12:04:06;;;;;;;8.20;5.00;;;18.60;99.90;;;;;;5072335;28;20048;-47
2022/05/06 12:06:33;;;;;;;7.93;4.50;;;18.70;99.90;;;;;;5072123;28;20051;-47
2022/05/06 12:09:11;;;;;;;6.80;4.40;;;18.90;99.90;;;;;;5072370;28;20105;-46
2022/05/06 12:11:38;;;;;;;7.78;5.07;;;18.90;99.90;;;;;;5072246;28;20041;-49
2022/05/06 12:14:08;;;;;;;8.98;5.88;;;18.50;99.90;;;;;;5072548;28;20447;-47
2022/05/06 12:16:35;;;;;;;9.25;5.65;;;18.40;99.90;;;;;;5072328;28;20447;-48
2022/05/06 12:19:00;;;;;;;9.85;5.63;;;18.70;99.90;;;;;;5071099;28;20041;-48
2022/05/06 12:21:27;;;;;;;8.23;6.00;;;19.20;99.90;;;;;;5072132;28;20093;-48
2022/05/06 12:23:59;;;;;;;9.70;5.63;;;19.10;99.90;;;;;;5071934;28;20435;-48
2022/05/06 12:26:36;;;;;;;9.38;5.88;;;19.50;99.90;;;;;;5072077;28;20465;-47
2022/05/06 12:29:20;;;;;;;7.70;5.55;;;19.20;99.90;;;;;;5072292;28;20072;-47
2022/05/06 12:31:48;;;;;;;8.23;5.35;;;19.00;99.90;;;;;;5071048;28;20040;-48
2022/05/06 12:34:14;;;;;;;9.65;6.55;;;18.90;99.90;;;;;;5071994;28;20391;-48
2022/05/06 12:36:39;;;;;;;9.35;5.95;;;18.60;99.90;;;;;;5072018;28;20047;-48
2022/05/06 12:39:19;;;;;;;9.77;6.72;;;18.60;99.90;;;;;;5072281;28;20447;-47
2022/05/06 12:41:45;;;;;;;8.85;5.70;;;18.70;99.90;;;;;;5071882;28;20060;-47
2022/05/06 12:44:17;;;;;;;9.77;6.10;;;18.60;99.90;;;;;;5072118;28;20036;-48
2022/05/06 12:46:43;;;;;;;8.90;6.07;;;18.90;99.90;;;;;;5072048;28;20106;-47
2022/05/06 12:51:53;;;;;;;9.93;5.45;;;19.20;99.90;;;;;;5071573;28;20489;-48
2022/05/06 12:54:19;;;;;;;7.72;5.10;;;19.50;99.90;;;;;;5071806;28;20044;-48
2022/05/06 12:56:45;;;;;;;9.20;5.13;;;19.50;99.90;;;;;;5071486;28;20416;-47
2022/05/06 12:59:10;;;;;;;11.77;6.00;;;19.60;99.90;;;;;;5070125;28;20037;-51
2022/05/06 13:01:36;;;;;;;9.20;5.47;;;19.50;99.90;;;;;;5056160;28;20076;-51
2022/05/06 13:04:02;;;;;;;9.52;5.75;;;19.70;99.90;;;;;;5051754;28;20041;-50
2022/05/06 13:06:31;;;;;;;9.13;6.03;;;19.60;99.90;;;;;;5051777;28;20033;-47
2022/05/06 13:08:57;;;;;;;10.95;6.15;;;19.70;99.90;;;;;;5050517;28;20043;-48
2022/05/06 13:11:23;;;;;;;9.25;5.50;;;19.80;99.90;;;;;;5051653;28;20115;-48
2022/05/06 13:13:48;;;;;;;7.90;4.80;;;20.20;99.90;;;;;;5051545;28;20455;-46
2022/05/06 13:16:14;;;;;;;8.45;5.30;;;20.50;99.90;;;;;;5068262;28;20044;-47
2022/05/06 13:18:40;;;;;;;8.63;5.30;;;20.70;99.90;;;;;;5070549;28;20036;-48
2022/05/06 13:21:06;;;;;;;8.57;4.57;;;20.50;99.90;;;;;;5070413;28;20039;-47
2022/05/06 13:23:32;;;;;;;8.73;4.22;;;20.50;99.90;;;;;;5071031;28;20404;-47
2022/05/06 13:25:58;;;;;;;9.95;4.93;;;20.60;99.90;;;;;;5071454;28;20609;-49
2022/05/06 13:28:24;;;;;;;7.75;4.95;;;20.90;99.90;;;;;;5071537;28;20055;-47